Time;durP1;ratioP1;P1;durP2;ratioP2;P2;SDS_P1;SDS_P2;PMS_P1;PMS_P2;Temp;Humidity;BMP_temperature;BMP_pressure;BME280_temperature;BME280_humidity;BME280_pressure;Samples;Min_cycle;Max_cycle;Signal;HPM_P1;HPM_P2
2023/07/01 00:01:24;;;;;;;4.10;3.80;;;;;;;;;;5053490;28;20415;-62
2023/07/01 00:03:50;;;;;;;3.90;3.70;;;;;;;;;;5053259;28;20033;-63
2023/07/01 00:06:15;;;;;;;3.53;3.25;;;;;;;;;;5053526;28;20116;-63
2023/07/01 00:08:41;;;;;;;4.38;4.07;;;;;;;;;;5053448;28;20044;-63
2023/07/01 00:11:07;;;;;;;4.55;4.15;;;;;;;;;;5053429;28;20044;-63
2023/07/01 00:13:33;;;;;;;3.72;3.50;;;;;;;;;;5053680;28;20040;-63
2023/07/01 00:15:58;;;;;;;4.60;4.30;;;;;;;;;;5053396;28;20479;-63
2023/07/01 00:18:24;;;;;;;4.57;4.05;;;;;;;;;;5053381;28;20017;-63
2023/07/01 00:20:50;;;;;;;4.68;4.28;;;;;;;;;;5035226;28;20052;-63
2023/07/01 00:23:15;;;;;;;4.32;4.03;;;;;;;;;;5053272;28;20021;-63
2023/07/01 00:25:40;;;;;;;5.60;4.57;;;;;;;;;;5053313;28;20021;-63
2023/07/01 00:28:06;;;;;;;6.18;4.43;;;;;;;;;;5051910;28;20282;-62
2023/07/01 00:30:32;;;;;;;4.75;4.35;;;;;;;;;;5052614;28;20029;-63
2023/07/01 00:32:57;;;;;;;5.00;4.60;;;;;;;;;;5035160;28;20473;-63
2023/07/01 00:35:23;;;;;;;5.07;4.63;;;;;;;;;;5054098;28;20032;-63
2023/07/01 00:37:49;;;;;;;4.60;4.25;;;;;;;;;;5057235;28;20032;-63
2023/07/01 00:40:14;;;;;;;5.03;4.57;;;;;;;;;;5056969;28;20033;-63
2023/07/01 00:42:40;;;;;;;4.68;4.38;;;;;;;;;;5038640;28;20043;-62
2023/07/01 00:45:05;;;;;;;4.85;4.55;;;;;;;;;;5055320;28;20029;-63
2023/07/01 00:47:31;;;;;;;4.78;4.47;;;;;;;;;;5038905;28;20033;-64
2023/07/01 00:49:56;;;;;;;4.45;4.15;;;;;;;;;;5056469;28;20056;-65
2023/07/01 00:52:22;;;;;;;5.03;4.65;;;;;;;;;;5056988;28;20029;-65
2023/07/01 00:54:47;;;;;;;5.00;4.60;;;;;;;;;;5056398;28;20064;-63
2023/07/01 00:57:13;;;;;;;5.50;4.88;;;;;;;;;;5038470;28;20036;-62
2023/07/01 00:59:38;;;;;;;5.05;4.63;;;;;;;;;;5038541;28;20037;-62
2023/07/01 01:02:06;;;;;;;5.30;4.88;;;;;;;;;;5038331;28;20029;-62
2023/07/01 01:04:35;;;;;;;5.05;4.65;;;;;;;;;;5054932;28;20162;-62
2023/07/01 01:07:27;;;;;;;5.57;5.10;;;;;;;;;;5056434;28;20028;-62
2023/07/01 01:12:40;;;;;;;4.78;4.38;;;;;;;;;;5101491;22;20080;-62
2023/07/01 01:15:08;;;;;;;4.82;4.43;;;;;;;;;;5096565;28;20107;-60
2023/07/01 01:17:35;;;;;;;4.72;4.38;;;;;;;;;;5096525;28;20036;-60
2023/07/01 01:23:26;;;;;;;5.40;4.65;;;;;;;;;;5107116;22;20511;-63
2023/07/01 01:25:59;;;;;;;4.95;4.55;;;;;;;;;;5016749;28;20489;-65
2023/07/01 01:28:24;;;;;;;5.30;4.90;;;;;;;;;;5036111;28;20029;-63
2023/07/01 01:30:50;;;;;;;6.70;4.47;;;;;;;;;;5035823;28;20112;-62
2023/07/01 01:33:15;;;;;;;5.47;4.72;;;;;;;;;;5036297;28;20029;-62
2023/07/01 01:35:41;;;;;;;5.07;4.65;;;;;;;;;;5018733;28;20102;-62
2023/07/01 01:38:10;;;;;;;5.32;4.90;;;;;;;;;;5018193;28;20040;-63
2023/07/01 01:40:40;;;;;;;5.07;4.68;;;;;;;;;;5036188;28;20044;-64
2023/07/01 01:43:20;;;;;;;5.13;4.72;;;;;;;;;;5017672;28;20025;-63
2023/07/01 01:45:45;;;;;;;5.28;4.88;;;;;;;;;;5035782;28;20033;-63
2023/07/01 01:48:11;;;;;;;5.15;4.85;;;;;;;;;;5035185;28;20029;-63
2023/07/01 01:50:38;;;;;;;5.22;4.82;;;;;;;;;;5035430;28;20025;-63
2023/07/01 01:53:05;;;;;;;4.97;4.68;;;;;;;;;;5035664;28;20144;-62
2023/07/01 01:55:31;;;;;;;5.28;4.95;;;;;;;;;;5035609;28;20151;-64
2023/07/01 01:57:57;;;;;;;5.47;5.07;;;;;;;;;;5017500;28;20448;-65
2023/07/01 02:00:22;;;;;;;5.50;5.15;;;;;;;;;;5017712;28;20397;-62
2023/07/01 02:02:48;;;;;;;6.70;6.10;;;;;;;;;;5035369;28;20029;-63
2023/07/01 02:05:13;;;;;;;5.88;5.43;;;;;;;;;;5035150;28;20036;-63
2023/07/01 02:07:39;;;;;;;6.53;5.85;;;;;;;;;;5017403;28;20496;-64
2023/07/01 02:10:05;;;;;;;6.30;5.80;;;;;;;;;;5017449;28;20388;-65
2023/07/01 02:12:30;;;;;;;6.43;5.78;;;;;;;;;;5017207;28;20017;-65
2023/07/01 02:14:56;;;;;;;6.63;5.85;;;;;;;;;;5035233;28;20091;-63
2023/07/01 02:17:21;;;;;;;6.45;5.85;;;;;;;;;;5017217;28;20037;-63
2023/07/01 02:19:46;;;;;;;6.35;5.85;;;;;;;;;;5035129;28;20033;-63
2023/07/01 02:22:12;;;;;;;6.82;6.13;;;;;;;;;;5035035;28;20025;-63
2023/07/01 02:24:37;;;;;;;6.93;6.43;;;;;;;;;;5034586;28;20557;-63
2023/07/01 02:27:02;;;;;;;6.90;6.40;;;;;;;;;;5017001;28;20049;-63
2023/07/01 02:29:28;;;;;;;7.50;6.78;;;;;;;;;;5034931;28;20458;-63
2023/07/01 02:31:54;;;;;;;6.90;6.30;;;;;;;;;;5016896;28;20037;-63
2023/07/01 02:34:26;;;;;;;6.90;6.32;;;;;;;;;;5016900;28;20465;-63
2023/07/01 02:36:53;;;;;;;6.47;5.97;;;;;;;;;;5034803;28;20100;-63
2023/07/01 02:39:18;;;;;;;6.03;5.53;;;;;;;;;;5034465;28;20091;-63
2023/07/01 02:41:43;;;;;;;6.25;5.75;;;;;;;;;;5016670;28;20092;-63
2023/07/01 02:44:08;;;;;;;6.00;5.60;;;;;;;;;;5034714;28;20017;-63
2023/07/01 02:46:34;;;;;;;5.82;5.40;;;;;;;;;;5034338;28;20432;-63
2023/07/01 02:48:59;;;;;;;6.47;5.30;;;;;;;;;;5034596;28;20052;-63
2023/07/01 02:51:24;;;;;;;5.38;4.97;;;;;;;;;;5000198;28;20044;-63
2023/07/01 02:53:50;;;;;;;6.40;5.00;;;;;;;;;;5016531;28;20040;-63
2023/07/01 02:56:16;;;;;;;6.78;5.43;;;;;;;;;;5016474;28;20068;-63
2023/07/01 02:58:41;;;;;;;5.63;5.13;;;;;;;;;;5033607;28;20372;-63
2023/07/01 03:01:07;;;;;;;6.53;5.25;;;;;;;;;;5016283;28;20090;-64
2023/07/01 03:03:32;;;;;;;5.47;5.07;;;;;;;;;;5017039;28;20037;-65
2023/07/01 03:05:57;;;;;;;5.43;5.03;;;;;;;;;;5016312;28;20109;-63
2023/07/01 03:08:23;;;;;;;5.55;5.15;;;;;;;;;;5034016;28;20397;-64
2023/07/01 03:10:48;;;;;;;6.15;5.65;;;;;;;;;;5033937;28;20034;-63
2023/07/01 03:13:15;;;;;;;5.82;5.40;;;;;;;;;;5034177;28;20037;-63
2023/07/01 03:15:40;;;;;;;6.10;5.45;;;;;;;;;;5033875;28;20029;-63
2023/07/01 03:18:06;;;;;;;6.10;5.50;;;;;;;;;;4999776;28;20397;-63
2023/07/01 03:20:31;;;;;;;6.20;5.70;;;;;;;;;;5016221;28;20034;-63
2023/07/01 03:22:57;;;;;;;5.68;5.28;;;;;;;;;;5033704;28;20033;-63
2023/07/01 03:25:23;;;;;;;6.15;5.55;;;;;;;;;;5015901;28;20044;-63
2023/07/01 03:27:49;;;;;;;5.40;5.00;;;;;;;;;;5016257;28;20481;-63
2023/07/01 03:30:15;;;;;;;5.82;5.43;;;;;;;;;;4999675;28;20017;-63
2023/07/01 03:32:42;;;;;;;5.72;5.22;;;;;;;;;;5035148;23;20048;-62
2023/07/01 03:35:09;;;;;;;5.70;5.15;;;;;;;;;;5052662;28;20025;-60
2023/07/01 03:37:35;;;;;;;6.25;5.53;;;;;;;;;;5052292;28;20388;-60
2023/07/01 03:40:02;;;;;;;6.22;5.72;;;;;;;;;;5052254;28;20068;-62
2023/07/01 03:42:27;;;;;;;5.97;5.47;;;;;;;;;;5053972;28;20049;-64
2023/07/01 03:45:34;;;;;;;7.68;6.03;;;;;;;;;;5083696;23;20408;-60
2023/07/01 03:48:12;;;;;;;6.15;5.57;;;;;;;;;;5033885;28;20132;-63
2023/07/01 03:50:38;;;;;;;6.20;5.68;;;;;;;;;;5053606;28;20025;-65
2023/07/01 03:53:03;;;;;;;5.78;5.38;;;;;;;;;;5035521;28;20556;-65
2023/07/01 03:55:28;;;;;;;6.30;5.75;;;;;;;;;;5053587;28;20047;-63
2023/07/01 03:57:54;;;;;;;7.18;6.47;;;;;;;;;;5053891;28;20056;-64
2023/07/01 04:00:19;;;;;;;6.75;6.18;;;;;;;;;;5053576;28;20032;-63
2023/07/01 04:02:48;;;;;;;7.32;6.63;;;;;;;;;;5053479;28;20032;-63
2023/07/01 04:05:14;;;;;;;7.80;7.10;;;;;;;;;;5053518;28;20021;-63
2023/07/01 04:07:40;;;;;;;8.68;7.88;;;;;;;;;;5053463;28;20047;-63
2023/07/01 04:10:05;;;;;;;8.27;7.47;;;;;;;;;;5053947;28;20134;-63
2023/07/01 04:12:34;;;;;;;8.43;7.47;;;;;;;;;;5057455;28;20453;-63
2023/07/01 04:15:00;;;;;;;8.88;7.88;;;;;;;;;;5057424;28;20112;-63
2023/07/01 04:17:26;;;;;;;7.80;7.10;;;;;;;;;;5039618;28;20115;-63
2023/07/01 04:19:51;;;;;;;7.60;6.93;;;;;;;;;;5039948;28;20029;-63
2023/07/01 04:22:17;;;;;;;7.93;7.32;;;;;;;;;;5039059;28;20464;-63
2023/07/01 04:24:43;;;;;;;8.15;7.50;;;;;;;;;;5057230;28;20029;-63
2023/07/01 04:27:08;;;;;;;9.88;8.13;;;;;;;;;;5057171;28;20013;-63
2023/07/01 04:29:34;;;;;;;9.40;8.48;;;;;;;;;;5039006;28;20025;-63
2023/07/01 04:31:59;;;;;;;9.40;8.50;;;;;;;;;;5038909;28;20090;-63
2023/07/01 04:34:24;;;;;;;9.48;8.68;;;;;;;;;;5057044;28;20040;-63
2023/07/01 04:36:49;;;;;;;9.93;8.50;;;;;;;;;;5022357;28;20373;-63
2023/07/01 04:39:15;;;;;;;9.60;8.60;;;;;;;;;;5056701;28;20037;-63
2023/07/01 04:41:41;;;;;;;9.63;8.73;;;;;;;;;;5056837;28;20029;-63
2023/07/01 04:44:06;;;;;;;9.20;8.27;;;;;;;;;;5057139;28;20032;-64
2023/07/01 04:46:32;;;;;;;8.98;8.02;;;;;;;;;;5035164;28;20168;-65
2023/07/01 04:49:01;;;;;;;8.90;8.10;;;;;;;;;;5036615;28;20021;-65
2023/07/01 04:51:26;;;;;;;8.85;8.10;;;;;;;;;;5035229;28;20048;-65
2023/07/01 04:53:52;;;;;;;8.68;7.75;;;;;;;;;;5036557;28;20021;-63
2023/07/01 04:56:21;;;;;;;7.97;7.28;;;;;;;;;;5035214;28;20021;-63
2023/07/01 04:58:46;;;;;;;7.85;7.13;;;;;;;;;;5036703;28;20041;-63
2023/07/01 05:01:11;;;;;;;7.88;7.07;;;;;;;;;;5036312;28;20026;-64
2023/07/01 05:03:37;;;;;;;6.78;6.18;;;;;;;;;;5035051;28;20030;-63
2023/07/01 05:06:03;;;;;;;8.20;7.40;;;;;;;;;;5036590;28;20112;-63
2023/07/01 05:08:28;;;;;;;7.32;6.72;;;;;;;;;;5036521;28;20038;-63
2023/07/01 05:10:53;;;;;;;7.70;6.45;;;;;;;;;;5036251;28;20029;-63
2023/07/01 05:13:19;;;;;;;6.90;6.30;;;;;;;;;;5036407;28;20029;-63
2023/07/01 05:15:44;;;;;;;7.32;6.63;;;;;;;;;;5036085;28;20052;-64
2023/07/01 05:18:10;;;;;;;8.13;6.78;;;;;;;;;;5034905;28;20029;-63
2023/07/01 05:20:36;;;;;;;8.32;7.22;;;;;;;;;;5036316;28;20389;-63
2023/07/01 05:23:01;;;;;;;6.80;6.13;;;;;;;;;;5017237;28;20030;-63
2023/07/01 05:25:27;;;;;;;7.88;7.13;;;;;;;;;;5035981;28;20029;-63
2023/07/01 05:27:52;;;;;;;7.57;6.93;;;;;;;;;;5035861;28;20013;-64
2023/07/01 05:30:17;;;;;;;7.72;6.88;;;;;;;;;;5035891;28;20435;-65
2023/07/01 05:32:43;;;;;;;9.00;7.50;;;;;;;;;;5034521;28;20025;-63
2023/07/01 05:35:08;;;;;;;9.65;7.45;;;;;;;;;;5034506;28;20029;-64
2023/07/01 05:37:34;;;;;;;8.07;7.25;;;;;;;;;;5035725;28;20095;-65
2023/07/01 05:39:59;;;;;;;11.07;7.85;;;;;;;;;;5035491;28;20021;-65
2023/07/01 05:42:24;;;;;;;12.10;7.93;;;;;;;;;;5035574;28;20477;-65
2023/07/01 05:44:50;;;;;;;10.77;7.75;;;;;;;;;;5035565;28;20101;-63
2023/07/01 05:47:15;;;;;;;8.63;7.25;;;;;;;;;;5034195;28;20037;-63
2023/07/01 05:49:40;;;;;;;10.35;7.97;;;;;;;;;;5035779;28;20026;-63
2023/07/01 05:52:06;;;;;;;10.40;8.32;;;;;;;;;;5035706;28;20038;-63
2023/07/01 05:54:31;;;;;;;8.07;7.25;;;;;;;;;;5034135;28;20037;-61
2023/07/01 05:56:57;;;;;;;8.45;7.45;;;;;;;;;;5035914;28;20032;-60
2023/07/01 05:59:22;;;;;;;10.50;8.52;;;;;;;;;;5035259;28;20040;-60
2023/07/01 06:01:47;;;;;;;10.20;8.65;;;;;;;;;;5035716;28;20037;-60
2023/07/01 06:04:13;;;;;;;9.15;8.30;;;;;;;;;;5035205;28;20513;-61
2023/07/01 06:06:39;;;;;;;8.88;7.97;;;;;;;;;;5069187;22;20503;-62
2023/07/01 06:09:08;;;;;;;10.90;8.18;;;;;;;;;;5075321;28;20465;-63
2023/07/01 06:11:33;;;;;;;8.60;7.82;;;;;;;;;;5074978;28;20036;-63
2023/07/01 06:13:58;;;;;;;8.25;7.50;;;;;;;;;;5074879;28;20036;-63
2023/07/01 06:16:24;;;;;;;8.77;8.00;;;;;;;;;;5075418;28;20078;-64
2023/07/01 06:18:49;;;;;;;8.88;8.07;;;;;;;;;;5040258;28;20080;-64
2023/07/01 06:21:14;;;;;;;8.60;7.80;;;;;;;;;;5074651;28;20042;-65
2023/07/01 06:23:40;;;;;;;8.30;7.60;;;;;;;;;;5074951;28;20100;-65
2023/07/01 06:26:05;;;;;;;8.05;7.45;;;;;;;;;;5074941;28;20044;-64
2023/07/01 06:28:32;;;;;;;9.15;8.35;;;;;;;;;;5056694;28;20430;-65
2023/07/01 06:30:57;;;;;;;8.57;7.95;;;;;;;;;;5057260;28;20025;-65
2023/07/01 06:33:23;;;;;;;8.77;7.97;;;;;;;;;;5074659;28;20040;-65
2023/07/01 06:35:48;;;;;;;9.70;8.80;;;;;;;;;;5074708;28;20028;-65
2023/07/01 06:38:13;;;;;;;8.73;8.02;;;;;;;;;;5074675;28;20096;-65
2023/07/01 06:40:39;;;;;;;8.20;7.45;;;;;;;;;;5074909;28;20102;-63
2023/07/01 06:43:04;;;;;;;7.57;6.90;;;;;;;;;;5074288;28;20606;-63
2023/07/01 06:45:30;;;;;;;7.97;7.28;;;;;;;;;;5074607;28;20097;-63
2023/07/01 06:47:55;;;;;;;7.70;7.05;;;;;;;;;;5074247;28;20534;-63
2023/07/01 06:50:21;;;;;;;7.72;7.10;;;;;;;;;;5056433;28;20020;-63
2023/07/01 06:52:46;;;;;;;5.63;5.20;;;;;;;;;;5074419;28;20050;-63
2023/07/01 06:55:14;;;;;;;7.15;6.65;;;;;;;;;;5074373;28;20090;-63
2023/07/01 06:57:40;;;;;;;5.78;5.35;;;;;;;;;;5056189;28;20361;-65
2023/07/01 07:00:09;;;;;;;5.50;5.10;;;;;;;;;;5074325;28;20032;-65
2023/07/01 07:02:37;;;;;;;6.60;6.10;;;;;;;;;;5074459;28;20036;-65
2023/07/01 07:05:03;;;;;;;5.35;4.95;;;;;;;;;;5074022;28;20380;-65
2023/07/01 07:07:29;;;;;;;4.70;4.40;;;;;;;;;;5073897;28;20036;-65
2023/07/01 07:09:54;;;;;;;3.40;3.20;;;;;;;;;;5074167;28;20579;-65
2023/07/01 07:12:20;;;;;;;4.13;3.80;;;;;;;;;;5073835;28;20522;-65
2023/07/01 07:14:45;;;;;;;4.22;3.95;;;;;;;;;;5074078;28;20024;-64
2023/07/01 07:17:11;;;;;;;4.35;4.15;;;;;;;;;;5073747;28;20034;-64
2023/07/01 07:19:37;;;;;;;4.07;3.80;;;;;;;;;;5074095;28;20028;-65
2023/07/01 07:22:02;;;;;;;3.53;3.28;;;;;;;;;;5055686;28;20460;-65
2023/07/01 07:24:27;;;;;;;3.58;3.38;;;;;;;;;;5073969;28;20028;-65
2023/07/01 07:26:57;;;;;;;3.88;3.55;;;;;;;;;;5055713;28;20024;-65
2023/07/01 07:29:24;;;;;;;3.28;3.08;;;;;;;;;;5073938;28;20051;-65
2023/07/01 07:31:50;;;;;;;3.78;3.53;;;;;;;;;;5074200;28;20454;-64
2023/07/01 07:34:17;;;;;;;3.55;3.30;;;;;;;;;;5073617;28;20060;-63
2023/07/01 07:36:43;;;;;;;3.90;3.70;;;;;;;;;;5073504;28;20427;-64
2023/07/01 07:39:08;;;;;;;4.85;4.38;;;;;;;;;;5073572;28;20016;-65
2023/07/01 07:41:34;;;;;;;4.63;4.13;;;;;;;;;;5073441;28;20032;-65
2023/07/01 07:43:59;;;;;;;4.57;4.15;;;;;;;;;;5073747;28;20081;-65
2023/07/01 07:46:24;;;;;;;5.15;4.15;;;;;;;;;;5073227;28;20029;-65
2023/07/01 07:48:50;;;;;;;6.88;4.72;;;;;;;;;;5073730;28;20025;-65
2023/07/01 07:51:15;;;;;;;7.60;5.72;;;;;;;;;;5073348;23;20393;-64
2023/07/01 07:53:41;;;;;;;7.55;4.50;;;;;;;;;;5073412;28;20027;-65
2023/07/01 07:56:07;;;;;;;5.82;4.72;;;;;;;;;;5073428;28;20430;-64
2023/07/01 07:58:32;;;;;;;5.95;5.45;;;;;;;;;;5073663;28;20020;-64
2023/07/01 08:00:57;;;;;;;4.97;4.47;;;;;;;;;;5073379;28;20082;-63
2023/07/01 08:03:23;;;;;;;4.50;4.05;;;;;;;;;;5073540;28;20040;-64
2023/07/01 08:05:49;;;;;;;4.43;4.07;;;;;;;;;;5073581;28;20478;-65
2023/07/01 08:08:15;;;;;;;6.10;4.82;;;;;;;;;;5073299;28;20103;-65
2023/07/01 08:10:45;;;;;;;5.38;4.85;;;;;;;;;;5073521;28;20064;-62
2023/07/01 08:13:11;;;;;;;5.45;4.97;;;;;;;;;;5083551;23;20480;-64
2023/07/01 08:18:17;;;;;;;4.40;4.00;;;;;;;;;;5068352;22;20063;-64
2023/07/01 08:20:43;;;;;;;4.28;3.97;;;;;;;;;;5073425;28;20033;-65
2023/07/01 08:23:08;;;;;;;5.43;4.82;;;;;;;;;;5073045;28;20060;-65
2023/07/01 08:25:34;;;;;;;5.07;4.45;;;;;;;;;;5073124;28;20025;-65
2023/07/01 08:27:59;;;;;;;4.80;4.40;;;;;;;;;;5072221;23;20092;-62
2023/07/01 08:30:24;;;;;;;6.43;5.85;;;;;;;;;;5073120;28;20028;-62
2023/07/01 08:32:51;;;;;;;6.55;6.05;;;;;;;;;;5073051;28;20111;-62
2023/07/01 08:35:16;;;;;;;6.03;5.32;;;;;;;;;;5073636;28;20167;-62
2023/07/01 08:37:43;;;;;;;5.78;5.15;;;;;;;;;;5073596;28;20067;-62
2023/07/01 08:40:08;;;;;;;4.80;4.32;;;;;;;;;;5073336;28;20029;-62
2023/07/01 08:42:43;;;;;;;4.38;3.92;;;;;;;;;;5072890;28;20029;-62
2023/07/01 08:45:08;;;;;;;4.55;4.13;;;;;;;;;;5073220;28;20040;-62
2023/07/01 08:47:35;;;;;;;6.40;4.43;;;;;;;;;;5071655;28;20021;-62
2023/07/01 08:50:03;;;;;;;4.85;4.30;;;;;;;;;;5071733;28;20024;-62
2023/07/01 08:52:31;;;;;;;6.07;4.10;;;;;;;;;;5072008;28;20017;-62
2023/07/01 08:54:56;;;;;;;4.68;4.03;;;;;;;;;;5073186;28;20028;-62
2023/07/01 08:57:21;;;;;;;3.85;3.55;;;;;;;;;;5072599;28;20059;-62
2023/07/01 08:59:47;;;;;;;3.83;3.63;;;;;;;;;;5076414;28;20028;-61
2023/07/01 09:02:13;;;;;;;3.90;3.60;;;;;;;;;;5075087;28;20082;-62
2023/07/01 09:04:38;;;;;;;4.35;3.95;;;;;;;;;;5076324;28;20082;-62
2023/07/01 09:07:05;;;;;;;4.72;4.43;;;;;;;;;;5076298;28;20067;-62
2023/07/01 09:09:30;;;;;;;4.75;4.43;;;;;;;;;;5074931;28;20040;-62
2023/07/01 09:11:56;;;;;;;4.25;3.95;;;;;;;;;;5076181;28;20029;-62
2023/07/01 09:14:22;;;;;;;4.57;3.72;;;;;;;;;;5076151;28;20166;-62
2023/07/01 09:16:47;;;;;;;4.70;4.25;;;;;;;;;;5058156;28;20135;-62
2023/07/01 09:19:22;;;;;;;5.38;4.32;;;;;;;;;;5076607;28;20051;-62
2023/07/01 09:21:47;;;;;;;4.88;4.40;;;;;;;;;;5076517;28;20122;-62
2023/07/01 09:24:13;;;;;;;4.40;4.07;;;;;;;;;;5076169;28;20017;-62
2023/07/01 09:26:39;;;;;;;3.85;3.55;;;;;;;;;;5074504;28;20094;-62
2023/07/01 09:29:11;;;;;;;3.85;3.65;;;;;;;;;;5076109;28;20081;-62
2023/07/01 09:31:43;;;;;;;3.83;3.63;;;;;;;;;;5075807;28;20490;-62
2023/07/01 09:34:09;;;;;;;4.18;3.92;;;;;;;;;;5075771;28;20039;-62
2023/07/01 09:36:34;;;;;;;3.88;3.60;;;;;;;;;;5076001;28;20052;-62
2023/07/01 09:39:01;;;;;;;4.07;3.78;;;;;;;;;;5076224;28;20075;-62
2023/07/01 09:41:28;;;;;;;4.03;3.72;;;;;;;;;;5075381;28;20055;-62
2023/07/01 09:43:55;;;;;;;4.45;4.05;;;;;;;;;;5075825;28;20045;-62
2023/07/01 09:46:21;;;;;;;4.70;4.30;;;;;;;;;;5075511;28;20029;-62
2023/07/01 09:48:51;;;;;;;4.72;4.32;;;;;;;;;;5075520;28;20039;-60
2023/07/01 09:51:17;;;;;;;4.32;4.03;;;;;;;;;;5075711;28;20028;-62
2023/07/01 09:53:42;;;;;;;4.35;3.95;;;;;;;;;;5075394;28;20028;-62
2023/07/01 09:56:08;;;;;;;4.55;4.07;;;;;;;;;;5074075;28;20067;-62
2023/07/01 09:58:33;;;;;;;5.18;4.78;;;;;;;;;;5075862;28;20059;-62
2023/07/01 10:01:02;;;;;;;5.68;5.18;;;;;;;;;;5075562;28;20032;-62
2023/07/01 10:03:27;;;;;;;6.13;5.63;;;;;;;;;;5075373;28;20030;-62
2023/07/01 10:05:53;;;;;;;4.88;4.43;;;;;;;;;;5074219;28;20100;-62
2023/07/01 10:08:19;;;;;;;5.78;5.28;;;;;;;;;;5074913;28;20024;-62
2023/07/01 10:10:54;;;;;;;5.40;4.90;;;;;;;;;;5074967;28;20036;-62
2023/07/01 10:13:20;;;;;;;5.40;5.00;;;;;;;;;;5075283;28;20067;-62
2023/07/01 10:15:46;;;;;;;5.40;4.90;;;;;;;;;;5075223;28;20064;-62
2023/07/01 10:18:21;;;;;;;4.70;4.35;;;;;;;;;;5074874;28;20037;-62
2023/07/01 10:20:46;;;;;;;5.97;5.50;;;;;;;;;;5075112;28;20032;-62
2023/07/01 10:23:12;;;;;;;6.78;5.70;;;;;;;;;;5075283;28;20029;-62
2023/07/01 10:25:38;;;;;;;6.05;5.55;;;;;;;;;;5075047;28;20032;-62
2023/07/01 10:28:04;;;;;;;7.28;6.30;;;;;;;;;;5073305;28;20181;-62
2023/07/01 10:30:44;;;;;;;6.43;5.88;;;;;;;;;;5075215;28;20040;-62
2023/07/01 10:33:32;;;;;;;6.13;5.63;;;;;;;;;;5075189;28;20170;-62
2023/07/01 10:36:07;;;;;;;5.53;5.13;;;;;;;;;;5074582;28;20464;-60
2023/07/01 10:38:47;;;;;;;6.15;5.63;;;;;;;;;;5103944;22;20055;-62
2023/07/01 10:41:12;;;;;;;7.13;6.55;;;;;;;;;;5090765;22;20147;-62
2023/07/01 10:43:38;;;;;;;8.20;7.60;;;;;;;;;;5074845;28;20111;-63
2023/07/01 10:46:19;;;;;;;8.30;7.00;;;;;;;;;;5056453;28;20040;-63
2023/07/01 10:49:05;;;;;;;6.97;6.47;;;;;;;;;;5074578;28;20090;-60
2023/07/01 10:54:44;;;;;;;7.43;6.75;;;;;;;;;;5072253;28;20061;-64
2023/07/01 10:57:13;;;;;;;7.75;7.15;;;;;;;;;;5074665;28;20456;-64
2023/07/01 10:59:39;;;;;;;6.47;5.97;;;;;;;;;;5074346;28;20028;-63
2023/07/01 11:05:34;;;;;;;7.00;6.40;;;;;;;;;;5013068;28;20128;-60
2023/07/01 11:08:06;;;;;;;7.05;6.38;;;;;;;;;;5014861;28;20113;-60
2023/07/01 11:10:32;;;;;;;7.07;6.50;;;;;;;;;;5014266;28;20046;-60
2023/07/01 11:13:03;;;;;;;7.00;6.50;;;;;;;;;;5014537;28;20030;-60
2023/07/01 11:15:28;;;;;;;;;;;;;;;;;;5014948;28;20037;-60
2023/07/01 11:17:54;;;;;;;7.20;6.70;;;;;;;;;;5014493;28;19910;-60
2023/07/01 11:20:19;;;;;;;7.93;7.28;;;;;;;;;;5013649;28;20109;-61
2023/07/01 11:22:45;;;;;;;8.10;7.50;;;;;;;;;;5014314;28;20125;-60
2023/07/01 11:25:10;;;;;;;7.72;7.00;;;;;;;;;;4996501;28;20096;-60
2023/07/01 11:27:42;;;;;;;5.40;4.88;;;;;;;;;;4996445;28;20030;-60
2023/07/01 11:30:08;;;;;;;8.40;7.70;;;;;;;;;;5014560;28;20033;-60
2023/07/01 11:32:33;;;;;;;8.90;8.05;;;;;;;;;;5013970;28;20389;-60
2023/07/01 11:34:58;;;;;;;8.07;7.45;;;;;;;;;;5014490;28;20410;-60
2023/07/01 11:37:24;;;;;;;7.57;6.88;;;;;;;;;;4996299;28;20056;-60
2023/07/01 11:39:50;;;;;;;9.90;8.90;;;;;;;;;;4996277;28;20061;-60
2023/07/01 11:42:15;;;;;;;10.15;9.00;;;;;;;;;;5014357;28;20419;-60
2023/07/01 11:44:40;;;;;;;11.73;8.98;;;;;;;;;;5013822;28;20483;-60
2023/07/01 11:47:12;;;;;;;10.45;9.48;;;;;;;;;;5013820;28;20064;-60
2023/07/01 11:49:39;;;;;;;14.10;12.07;;;;;;;;;;5013418;28;20371;-60
2023/07/01 11:52:06;;;;;;;17.85;16.05;;;;;;;;;;5013761;28;20049;-60
2023/07/01 11:54:37;;;;;;;16.77;15.07;;;;;;;;;;5014547;28;20374;-60
2023/07/01 11:57:15;;;;;;;17.48;15.73;;;;;;;;;;5013991;28;20117;-60
2023/07/01 12:00:03;;;;;;;19.27;16.60;;;;;;;;;;5014247;28;20029;-60
2023/07/01 12:02:30;;;;;;;18.55;16.73;;;;;;;;;;5013638;28;20049;-60
2023/07/01 12:04:55;;;;;;;21.08;18.38;;;;;;;;;;5007475;28;20038;-60
2023/07/01 12:07:21;;;;;;;20.50;18.35;;;;;;;;;;5013578;28;20022;-60
2023/07/01 12:09:46;;;;;;;20.40;17.73;;;;;;;;;;5013910;28;20106;-61
2023/07/01 12:12:14;;;;;;;16.67;14.98;;;;;;;;;;5013570;28;20034;-60
2023/07/01 12:14:40;;;;;;;17.58;15.70;;;;;;;;;;5013548;28;20032;-60
2023/07/01 12:17:05;;;;;;;19.73;17.73;;;;;;;;;;5013840;28;20026;-60
2023/07/01 12:19:31;;;;;;;19.65;17.73;;;;;;;;;;5013575;28;20469;-60
2023/07/01 12:21:58;;;;;;;15.77;14.13;;;;;;;;;;5012227;28;20030;-60
2023/07/01 12:24:30;;;;;;;23.42;17.42;;;;;;;;;;5013828;28;20032;-60
2023/07/01 12:26:57;;;;;;;19.42;17.40;;;;;;;;;;5013748;28;20443;-60
2023/07/01 12:29:23;;;;;;;14.27;12.80;;;;;;;;;;5013441;28;20018;-60
2023/07/01 12:31:48;;;;;;;16.55;14.80;;;;;;;;;;5015789;28;20112;-60
2023/07/01 12:34:14;;;;;;;17.70;15.93;;;;;;;;;;5017428;28;20088;-60
2023/07/01 12:36:42;;;;;;;17.85;15.88;;;;;;;;;;5017366;28;20056;-61
2023/07/01 12:39:08;;;;;;;14.85;12.68;;;;;;;;;;5017403;28;20033;-60
2023/07/01 12:41:35;;;;;;;11.13;10.10;;;;;;;;;;5016951;28;20034;-60
2023/07/01 12:44:01;;;;;;;10.32;8.82;;;;;;;;;;5016992;28;20022;-60
2023/07/01 12:46:27;;;;;;;8.48;7.75;;;;;;;;;;5015697;28;20100;-60
2023/07/01 12:48:52;;;;;;;11.60;9.60;;;;;;;;;;5015719;28;20025;-60
2023/07/01 12:51:17;;;;;;;10.95;9.52;;;;;;;;;;5016913;28;20097;-60
2023/07/01 12:53:43;;;;;;;12.68;11.38;;;;;;;;;;5015918;28;20030;-61
2023/07/01 12:56:08;;;;;;;10.93;9.93;;;;;;;;;;5016753;28;20096;-60
2023/07/01 12:58:36;;;;;;;12.02;10.82;;;;;;;;;;5017031;28;20033;-60
2023/07/01 13:01:01;;;;;;;13.98;12.55;;;;;;;;;;5073682;23;20072;-60
2023/07/01 13:03:29;;;;;;;15.60;14.00;;;;;;;;;;5076562;28;20063;-62
2023/07/01 13:05:54;;;;;;;15.95;14.25;;;;;;;;;;5076327;28;20024;-63
2023/07/01 13:08:19;;;;;;;15.63;12.40;;;;;;;;;;5076554;28;20027;-60
2023/07/01 13:10:45;;;;;;;14.00;12.60;;;;;;;;;;5096395;23;20094;-62
2023/07/01 13:16:28;;;;;;;14.63;13.13;;;;;;;;;;5095348;28;20036;-63
2023/07/01 13:18:55;;;;;;;14.68;12.75;;;;;;;;;;5096596;28;20097;-63
2023/07/01 13:21:20;;;;;;;15.35;13.80;;;;;;;;;;5096827;28;20032;-63
2023/07/01 13:23:45;;;;;;;15.60;14.05;;;;;;;;;;5096133;28;20027;-63
2023/07/01 13:26:11;;;;;;;13.75;12.45;;;;;;;;;;5096429;28;20054;-63
2023/07/01 13:28:36;;;;;;;15.65;14.07;;;;;;;;;;5094838;28;20035;-63
2023/07/01 13:31:01;;;;;;;13.65;12.25;;;;;;;;;;5096074;28;20031;-63
2023/07/01 13:33:27;;;;;;;15.32;13.73;;;;;;;;;;5096292;28;20081;-63
2023/07/01 13:35:53;;;;;;;14.88;12.65;;;;;;;;;;5095982;28;20038;-63
2023/07/01 13:38:18;;;;;;;15.40;13.82;;;;;;;;;;5095941;28;20089;-63
2023/07/01 13:40:44;;;;;;;14.63;13.02;;;;;;;;;;5096476;28;20032;-63
2023/07/01 13:43:16;;;;;;;13.23;11.93;;;;;;;;;;5095225;28;20063;-63
2023/07/01 13:45:41;;;;;;;13.32;11.95;;;;;;;;;;5096085;28;20114;-63
2023/07/01 13:48:08;;;;;;;13.93;12.32;;;;;;;;;;5100797;23;20143;-60
2023/07/01 13:50:37;;;;;;;11.43;10.32;;;;;;;;;;5104344;22;20057;-60
2023/07/01 13:53:11;;;;;;;10.98;9.93;;;;;;;;;;5054320;28;20057;-60
2023/07/01 13:55:39;;;;;;;10.77;9.73;;;;;;;;;;5055902;28;20040;-60
2023/07/01 13:58:05;;;;;;;10.30;9.35;;;;;;;;;;5055279;28;20029;-60
2023/07/01 14:00:44;;;;;;;11.43;10.25;;;;;;;;;;5055270;28;20371;-60
2023/07/01 14:03:16;;;;;;;12.55;11.30;;;;;;;;;;5055344;28;20384;-60
2023/07/01 14:05:42;;;;;;;11.73;10.63;;;;;;;;;;5055423;28;20036;-60
2023/07/01 14:08:08;;;;;;;9.88;8.98;;;;;;;;;;5055400;28;20029;-60
2023/07/01 14:10:35;;;;;;;10.05;8.00;;;;;;;;;;5055298;28;20029;-60
2023/07/01 14:13:01;;;;;;;9.23;8.35;;;;;;;;;;5055581;28;20025;-60
2023/07/01 14:15:30;;;;;;;10.65;9.65;;;;;;;;;;5037114;28;20163;-60
2023/07/01 14:17:55;;;;;;;10.05;9.15;;;;;;;;;;5055474;28;20029;-60
2023/07/01 14:20:21;;;;;;;10.77;9.48;;;;;;;;;;5054869;28;20025;-60
2023/07/01 14:22:47;;;;;;;10.23;9.32;;;;;;;;;;5036892;28;20515;-60
2023/07/01 14:25:22;;;;;;;9.63;8.70;;;;;;;;;;5055069;28;20033;-61
2023/07/01 14:27:48;;;;;;;10.20;9.25;;;;;;;;;;5054999;28;20036;-60
2023/07/01 14:30:14;;;;;;;11.93;10.23;;;;;;;;;;5054695;28;20025;-60
2023/07/01 14:32:39;;;;;;;10.65;9.65;;;;;;;;;;5037141;28;20068;-60
2023/07/01 14:35:07;;;;;;;8.50;7.70;;;;;;;;;;5055110;28;20380;-60
2023/07/01 14:37:33;;;;;;;7.82;7.20;;;;;;;;;;5054467;28;20029;-60
2023/07/01 14:39:58;;;;;;;9.13;8.23;;;;;;;;;;5054367;28;20040;-60
2023/07/01 14:42:29;;;;;;;10.80;9.13;;;;;;;;;;5054920;28;20037;-60
2023/07/01 14:44:55;;;;;;;9.43;8.60;;;;;;;;;;5054680;28;20025;-60
2023/07/01 14:47:21;;;;;;;9.45;8.65;;;;;;;;;;5054602;28;20032;-60
2023/07/01 14:49:47;;;;;;;8.43;7.63;;;;;;;;;;5036857;28;20036;-60
2023/07/01 14:52:12;;;;;;;8.10;7.30;;;;;;;;;;5054113;28;20118;-60
2023/07/01 14:54:37;;;;;;;9.38;8.50;;;;;;;;;;5054427;28;20166;-60